createdAt,value
2018-08-19T00:00:10.289Z,23.55
2018-08-19T00:01:10.335Z,23.54
2018-08-19T00:02:10.268Z,23.52
2018-08-19T00:03:10.277Z,23.56
2018-08-19T00:04:10.339Z,23.55
2018-08-19T00:05:10.284Z,23.52
2018-08-19T00:06:10.351Z,23.49
2018-08-19T00:07:10.347Z,23.51
2018-08-19T00:08:10.360Z,23.51
2018-08-19T00:09:10.364Z,23.48
2018-08-19T00:10:10.358Z,23.42
2018-08-19T00:11:10.417Z,23.48
2018-08-19T00:12:10.372Z,23.44
2018-08-19T00:13:10.417Z,23.48
2018-08-19T00:14:10.415Z,23.49
2018-08-19T00:15:10.427Z,23.49
2018-08-19T00:16:10.541Z,23.47
2018-08-19T00:17:10.519Z,23.44
2018-08-19T00:18:10.462Z,23.42
2018-08-19T00:19:10.501Z,23.47
2018-08-19T00:20:10.480Z,23.37
2018-08-19T00:21:10.499Z,23.44
2018-08-19T00:22:10.546Z,23.39
2018-08-19T00:23:10.568Z,23.52
2018-08-19T00:24:10.517Z,23.54
2018-08-19T00:25:10.564Z,23.40
2018-08-19T00:26:10.552Z,23.40
2018-08-19T00:27:10.559Z,23.44
2018-08-19T00:28:10.626Z,23.42
2018-08-19T00:29:10.684Z,23.40
2018-08-19T00:30:10.632Z,23.40
2018-08-19T00:31:10.637Z,23.40
2018-08-19T00:32:10.634Z,23.44
2018-08-19T00:33:10.641Z,23.34
2018-08-19T00:34:10.652Z,23.39
2018-08-19T00:35:10.740Z,23.39
2018-08-19T00:36:10.711Z,23.37
2018-08-19T00:37:10.717Z,23.32
2018-08-19T00:38:10.704Z,23.40
2018-08-19T00:39:10.723Z,23.28
2018-08-19T00:40:10.727Z,23.29
2018-08-19T00:41:10.801Z,23.32
2018-08-19T00:42:10.765Z,23.29
2018-08-19T00:43:10.767Z,23.36
2018-08-19T00:44:10.780Z,23.25
2018-08-19T00:45:10.821Z,23.32
2018-08-19T00:46:10.807Z,23.34
2018-08-19T00:47:10.809Z,23.26
2018-08-19T00:48:10.842Z,23.33
2018-08-19T00:49:10.882Z,23.40
2018-08-19T00:50:10.924Z,23.23
2018-08-19T00:51:10.862Z,23.26
2018-08-19T00:52:10.883Z,23.28
2018-08-19T00:53:10.891Z,23.29
2018-08-19T00:54:10.899Z,23.34
2018-08-19T00:55:11.019Z,23.28
2018-08-19T00:56:11.001Z,23.28
2018-08-19T00:57:10.942Z,23.28
2018-08-19T00:58:10.970Z,23.28
2018-08-19T00:59:10.967Z,23.28
2018-08-19T01:00:10.988Z,23.28
2018-08-19T01:01:11.048Z,23.21
2018-08-19T01:02:10.998Z,23.17
2018-08-19T01:03:11.013Z,23.21
2018-08-19T01:04:11.024Z,23.20
2018-08-19T01:05:11.034Z,23.21
2018-08-19T01:06:11.117Z,23.14
2018-08-19T01:07:11.051Z,23.16
2018-08-19T01:08:11.070Z,23.14
2018-08-19T01:09:11.092Z,23.16
2018-08-19T01:10:11.095Z,23.13
2018-08-19T01:11:11.145Z,23.21
2018-08-19T01:12:11.117Z,23.07
2018-08-19T01:13:11.161Z,23.14
2018-08-19T01:14:11.233Z,23.08
2018-08-19T01:15:11.166Z,23.10
2018-08-19T01:16:11.190Z,23.08
2018-08-19T01:17:11.192Z,23.10
2018-08-19T01:18:11.195Z,23.08
2018-08-19T01:19:11.255Z,23.07
2018-08-19T01:20:11.212Z,23.06
2018-08-19T01:21:11.239Z,23.01
2018-08-19T01:22:11.278Z,23.06
2018-08-19T01:23:11.268Z,23.06
2018-08-19T01:24:11.278Z,22.99
2018-08-19T01:25:11.318Z,22.99
2018-08-19T01:26:11.337Z,23.02
2018-08-19T01:27:11.305Z,22.98
2018-08-19T01:28:11.331Z,22.99
2018-08-19T01:29:11.360Z,23.01
2018-08-19T01:30:11.336Z,23.01
2018-08-19T01:31:11.390Z,23.01
2018-08-19T01:32:11.361Z,22.99
2018-08-19T01:33:11.423Z,23.01
2018-08-19T01:34:11.379Z,22.93
2018-08-19T01:35:11.413Z,22.98
2018-08-19T01:36:11.439Z,22.98
2018-08-19T01:37:11.412Z,22.89
2018-08-19T01:38:11.482Z,22.88
2018-08-19T01:39:11.458Z,22.89
2018-08-19T01:40:11.446Z,22.88
2018-08-19T01:41:11.459Z,22.96
2018-08-19T01:42:11.514Z,22.89
2018-08-19T01:43:11.546Z,22.86
2018-08-19T01:44:11.510Z,22.96
2018-08-19T01:45:11.515Z,22.80
2018-08-19T01:46:11.554Z,22.86
2018-08-19T01:47:11.553Z,22.81
2018-08-19T01:48:11.588Z,22.86
2018-08-19T01:49:11.654Z,22.92
2018-08-19T01:50:11.584Z,22.84
2018-08-19T01:51:11.578Z,22.84
2018-08-19T01:52:11.637Z,22.86
2018-08-19T01:53:11.643Z,22.84
2018-08-19T01:54:11.651Z,22.91
2018-08-19T01:55:11.682Z,22.91
2018-08-19T01:56:11.669Z,22.83
2018-08-19T01:57:11.660Z,22.83
2018-08-19T01:58:11.696Z,22.84
2018-08-19T01:59:11.765Z,22.86
2018-08-19T02:00:11.697Z,22.89
2018-08-19T02:01:11.718Z,22.88
2018-08-19T02:02:11.757Z,22.81
2018-08-19T02:03:11.758Z,22.86
2018-08-19T02:04:11.824Z,22.77
2018-08-19T02:05:11.779Z,22.86
2018-08-19T02:06:11.777Z,22.83
2018-08-19T02:07:11.825Z,22.84
2018-08-19T02:08:11.797Z,22.93
2018-08-19T02:09:11.872Z,22.84
2018-08-19T02:10:11.833Z,22.76
2018-08-19T02:11:11.886Z,22.83
2018-08-19T02:12:11.863Z,22.81
2018-08-19T02:13:11.879Z,22.81
2018-08-19T02:14:11.877Z,22.80
2018-08-19T02:15:11.897Z,22.83
2018-08-19T02:16:11.943Z,22.80
2018-08-19T02:17:11.925Z,22.77
2018-08-19T02:18:11.911Z,22.71
2018-08-19T02:19:11.945Z,22.78
2018-08-19T02:20:11.943Z,22.78
2018-08-19T02:21:11.998Z,22.70
2018-08-19T02:22:11.961Z,22.83
2018-08-19T02:23:11.965Z,22.77
2018-08-19T02:24:12.015Z,22.81
2018-08-19T02:25:12.023Z,22.83
2018-08-19T02:26:12.044Z,22.78
2018-08-19T02:27:12.027Z,22.74
2018-08-19T02:28:12.122Z,22.83
2018-08-19T02:29:12.042Z,22.73
2018-08-19T02:30:12.076Z,22.80
2018-08-19T02:31:12.065Z,22.80
2018-08-19T02:32:12.076Z,22.80
2018-08-19T02:33:12.123Z,22.83
2018-08-19T02:34:12.125Z,22.80
2018-08-19T02:35:12.134Z,22.81
2018-08-19T02:36:12.148Z,22.80
2018-08-19T02:37:12.131Z,22.78
2018-08-19T02:38:12.187Z,22.76
2018-08-19T02:39:12.226Z,22.76
2018-08-19T02:40:12.257Z,22.80
2018-08-19T02:41:12.210Z,22.70
2018-08-19T02:42:12.237Z,22.77
2018-08-19T02:43:12.230Z,22.68
2018-08-19T02:44:12.217Z,22.71
2018-08-19T02:45:12.247Z,22.68
2018-08-19T02:46:12.317Z,22.65
2018-08-19T02:47:12.283Z,22.74
2018-08-19T02:48:12.276Z,22.73
2018-08-19T02:49:12.292Z,22.71
2018-08-19T02:50:12.383Z,22.73
2018-08-19T02:51:12.351Z,22.71
2018-08-19T02:52:12.337Z,22.71
2018-08-19T02:53:12.331Z,22.62
2018-08-19T02:54:12.368Z,22.70
2018-08-19T02:55:12.382Z,22.63
2018-08-19T02:56:12.413Z,22.67
2018-08-19T02:57:12.395Z,22.56
2018-08-19T02:58:12.388Z,22.61
2018-08-19T02:59:12.422Z,22.65
2018-08-19T03:00:12.411Z,22.63
2018-08-19T03:01:12.500Z,22.61
2018-08-19T03:02:12.469Z,22.62
2018-08-19T03:03:12.443Z,22.62
2018-08-19T03:04:12.482Z,22.59
2018-08-19T03:05:12.493Z,22.65
2018-08-19T03:06:12.501Z,22.61
2018-08-19T03:07:12.554Z,22.59
2018-08-19T03:08:12.525Z,22.63
2018-08-19T03:09:12.524Z,22.51
2018-08-19T03:10:12.565Z,22.53
2018-08-19T03:11:12.537Z,22.55
2018-08-19T03:12:12.628Z,22.49
2018-08-19T03:13:12.598Z,22.51
2018-08-19T03:14:12.587Z,22.44
2018-08-19T03:15:12.793Z,22.44
2018-08-19T03:16:12.619Z,22.41
2018-08-19T03:17:12.673Z,22.51
2018-08-19T03:18:12.690Z,22.56
2018-08-19T03:19:12.653Z,22.56
2018-08-19T03:20:12.712Z,22.51
2018-08-19T03:21:12.655Z,22.53
2018-08-19T03:22:12.717Z,22.51
2018-08-19T03:23:12.748Z,22.51
2018-08-19T03:24:12.770Z,22.53
2018-08-19T03:25:12.723Z,22.52
2018-08-19T03:26:12.748Z,22.52
2018-08-19T03:27:12.763Z,22.56
2018-08-19T03:28:12.742Z,22.49
2018-08-19T03:29:12.805Z,22.43
2018-08-19T03:30:12.814Z,22.47
2018-08-19T03:31:12.812Z,22.43
2018-08-19T03:32:12.792Z,22.47
2018-08-19T03:33:12.820Z,22.34
2018-08-19T03:34:12.841Z,22.43
2018-08-19T03:35:12.902Z,22.40
2018-08-19T03:36:12.858Z,22.38
2018-08-19T03:37:12.881Z,22.37
2018-08-19T03:38:12.878Z,22.40
2018-08-19T03:39:12.878Z,22.37
2018-08-19T03:40:12.900Z,22.38
2018-08-19T03:41:12.951Z,22.37
2018-08-19T03:42:12.954Z,22.36
2018-08-19T03:43:12.945Z,22.34
2018-08-19T03:44:12.949Z,22.40
2018-08-19T03:45:12.951Z,22.37
2018-08-19T03:46:13.045Z,22.36
2018-08-19T03:47:12.999Z,22.36
2018-08-19T03:48:13.007Z,22.28
2018-08-19T03:49:13.009Z,22.34
2018-08-19T03:50:13.024Z,22.33
2018-08-19T03:51:13.045Z,22.34
2018-08-19T03:52:13.107Z,22.34
2018-08-19T03:53:13.055Z,22.34
2018-08-19T03:54:13.062Z,22.23
2018-08-19T03:55:13.090Z,22.31
2018-08-19T03:56:13.078Z,22.28
2018-08-19T03:57:13.146Z,22.31
2018-08-19T03:58:13.112Z,22.28
2018-08-19T03:59:13.115Z,22.26
2018-08-19T04:00:13.135Z,22.25
2018-08-19T04:01:13.153Z,22.26
2018-08-19T04:02:13.180Z,22.19
2018-08-19T04:03:13.187Z,22.19
2018-08-19T04:04:13.190Z,22.22
2018-08-19T04:05:13.201Z,22.25
2018-08-19T04:06:13.199Z,22.22
2018-08-19T04:07:13.274Z,22.21
2018-08-19T04:08:13.285Z,22.22
2018-08-19T04:09:13.240Z,22.22
2018-08-19T04:10:13.256Z,22.22
2018-08-19T04:11:13.251Z,22.18
2018-08-19T04:12:13.261Z,22.28
2018-08-19T04:13:13.327Z,22.21
2018-08-19T04:14:13.317Z,22.18
2018-08-19T04:15:13.324Z,22.25
2018-08-19T04:16:13.318Z,22.21
2018-08-19T04:17:13.345Z,22.23
2018-08-19T04:18:13.401Z,22.21
2018-08-19T04:19:13.373Z,22.19
2018-08-19T04:20:13.376Z,22.31
2018-08-19T04:21:13.405Z,22.21
2018-08-19T04:22:13.394Z,22.15
2018-08-19T04:23:13.478Z,22.22
2018-08-19T04:24:13.460Z,22.25
2018-08-19T04:25:13.430Z,22.21
2018-08-19T04:26:13.462Z,22.23
2018-08-19T04:27:13.477Z,22.22
2018-08-19T04:28:13.517Z,22.30
2018-08-19T04:29:13.474Z,22.25
2018-08-19T04:30:13.489Z,22.34
2018-08-19T04:31:13.497Z,22.21
2018-08-19T04:32:13.508Z,22.21
2018-08-19T04:33:13.579Z,22.18
2018-08-19T04:34:13.547Z,22.25
2018-08-19T04:35:13.572Z,22.21
2018-08-19T04:36:13.575Z,22.23
2018-08-19T04:37:13.571Z,22.23
2018-08-19T04:38:13.627Z,22.21
2018-08-19T04:39:13.637Z,22.21
2018-08-19T04:40:13.639Z,22.26
2018-08-19T04:41:13.608Z,22.28
2018-08-19T04:42:13.671Z,22.38
2018-08-19T04:43:13.635Z,22.34
2018-08-19T04:44:13.690Z,22.33
2018-08-19T04:45:13.708Z,22.37
2018-08-19T04:46:13.679Z,22.36
2018-08-19T04:47:13.705Z,22.36
2018-08-19T04:48:13.707Z,22.34
2018-08-19T04:49:13.701Z,22.34
2018-08-19T04:50:13.774Z,22.36
2018-08-19T04:51:13.779Z,22.47
2018-08-19T04:52:13.789Z,22.49
2018-08-19T04:53:13.767Z,22.43
2018-08-19T04:54:13.790Z,22.43
2018-08-19T04:55:13.803Z,22.46
2018-08-19T04:56:13.803Z,22.43
2018-08-19T04:57:13.815Z,22.49
2018-08-19T04:58:13.844Z,22.47
2018-08-19T04:59:13.839Z,22.47
2018-08-19T05:00:13.903Z,22.46
2018-08-19T05:01:13.852Z,22.51
2018-08-19T05:02:14.111Z,22.52
2018-08-19T05:03:13.897Z,22.52
2018-08-19T05:04:13.887Z,22.53
2018-08-19T05:05:13.889Z,22.51
2018-08-19T05:06:13.923Z,22.44
2018-08-19T05:07:13.974Z,22.56
2018-08-19T05:08:14.074Z,22.41
2018-08-19T05:09:14.012Z,22.51
2018-08-19T05:10:13.964Z,22.59
2018-08-19T05:11:14.072Z,22.62
2018-08-19T05:12:14.033Z,22.62
2018-08-19T05:13:14.056Z,22.56
2018-08-19T05:14:14.026Z,22.63
2018-08-19T05:15:14.020Z,22.61
2018-08-19T05:16:14.070Z,22.67
2018-08-19T05:17:14.135Z,22.62
2018-08-19T05:18:14.064Z,22.68
2018-08-19T05:19:14.086Z,22.73
2018-08-19T05:20:14.116Z,22.74
2018-08-19T05:21:14.112Z,22.70
2018-08-19T05:22:14.145Z,22.73
2018-08-19T05:23:14.177Z,22.81
2018-08-19T05:24:14.175Z,22.81
2018-08-19T05:25:14.160Z,22.77
2018-08-19T05:26:14.181Z,22.76
2018-08-19T05:27:14.197Z,22.93
2018-08-19T05:28:14.245Z,22.78
2018-08-19T05:29:14.196Z,22.83
2018-08-19T05:30:14.218Z,22.98
2018-08-19T05:31:14.227Z,22.96
2018-08-19T05:32:14.219Z,23.01
2018-08-19T05:33:14.288Z,22.95
2018-08-19T05:34:14.272Z,22.99
2018-08-19T05:35:14.295Z,23.06
2018-08-19T05:36:14.297Z,23.07
2018-08-19T05:37:14.308Z,23.16
2018-08-19T05:38:14.351Z,23.23
2018-08-19T05:39:14.320Z,23.28
2018-08-19T05:40:14.353Z,23.29
2018-08-19T05:41:14.352Z,23.28
2018-08-19T05:42:14.354Z,23.39
2018-08-19T05:43:14.388Z,23.45
2018-08-19T05:44:14.369Z,23.55
2018-08-19T05:45:14.484Z,23.48
2018-08-19T05:46:14.430Z,23.51
2018-08-19T05:47:14.484Z,23.51
2018-08-19T05:48:14.446Z,23.49
2018-08-19T05:49:14.443Z,23.59
2018-08-19T05:50:14.529Z,23.67
2018-08-19T05:51:14.477Z,23.64
2018-08-19T05:52:14.543Z,23.67
2018-08-19T05:53:14.511Z,23.81
2018-08-19T05:54:14.528Z,23.76
2018-08-19T05:55:14.563Z,23.84
2018-08-19T05:56:14.568Z,23.85
2018-08-19T05:57:14.609Z,23.71
2018-08-19T05:58:14.585Z,23.89
2018-08-19T05:59:14.617Z,23.91
2018-08-19T06:00:14.601Z,24.00
2018-08-19T06:01:14.673Z,24.03
2018-08-19T06:02:14.638Z,24.03
2018-08-19T06:03:14.679Z,24.18
2018-08-19T06:04:14.668Z,24.26
2018-08-19T06:05:14.712Z,24.29
2018-08-19T06:06:14.689Z,24.36
2018-08-19T06:07:14.710Z,24.48
2018-08-19T06:08:14.749Z,24.46
2018-08-19T06:09:14.717Z,24.53
2018-08-19T06:10:14.744Z,24.43
2018-08-19T06:11:14.732Z,24.58
2018-08-19T06:12:14.782Z,24.59
2018-08-19T06:13:14.816Z,24.62
2018-08-19T06:14:14.791Z,24.68
2018-08-19T06:15:14.802Z,24.61
2018-08-19T06:16:14.823Z,24.69
2018-08-19T06:17:14.832Z,24.75
2018-08-19T06:18:14.884Z,24.75
2018-08-19T06:19:14.851Z,24.79
2018-08-19T06:20:14.894Z,24.77
2018-08-19T06:21:14.898Z,24.92
2018-08-19T06:22:14.917Z,24.85
2018-08-19T06:23:14.927Z,24.94
2018-08-19T06:24:14.996Z,24.93
2018-08-19T06:25:14.951Z,24.85
2018-08-19T06:26:14.960Z,24.97
2018-08-19T06:27:14.950Z,24.84
2018-08-19T06:28:14.996Z,25.01
2018-08-19T06:29:15.069Z,25.00
2018-08-19T06:30:15.092Z,25.00
2018-08-19T06:31:15.111Z,25.03
2018-08-19T06:32:15.077Z,25.04
2018-08-19T06:33:15.060Z,25.01
2018-08-19T06:34:15.085Z,25.06
2018-08-19T06:35:15.113Z,25.07
2018-08-19T06:36:15.122Z,25.07
2018-08-19T06:37:15.096Z,25.09
2018-08-19T06:38:15.174Z,25.19
2018-08-19T06:39:15.122Z,25.15
2018-08-19T06:40:15.199Z,25.16
2018-08-19T06:41:15.182Z,25.14
2018-08-19T06:42:15.175Z,25.15
2018-08-19T06:43:15.289Z,25.19
2018-08-19T06:44:15.219Z,25.25
2018-08-19T06:45:15.258Z,25.34
2018-08-19T06:46:15.263Z,25.26
2018-08-19T06:47:15.248Z,25.34
2018-08-19T06:48:15.260Z,25.30
2018-08-19T06:49:15.298Z,25.29
2018-08-19T06:50:15.281Z,25.29
2018-08-19T06:51:15.385Z,25.37
2018-08-19T06:52:15.395Z,25.25
2018-08-19T06:53:15.340Z,25.26
2018-08-19T06:54:15.350Z,25.18
2018-08-19T06:55:15.379Z,25.25
2018-08-19T06:56:15.401Z,25.22
2018-08-19T06:57:15.417Z,25.22
2018-08-19T06:58:15.384Z,25.26
2018-08-19T06:59:15.424Z,25.25
2018-08-19T07:00:15.450Z,25.34
2018-08-19T07:01:15.443Z,25.21
2018-08-19T07:02:15.493Z,25.26
2018-08-19T07:03:15.501Z,25.21
2018-08-19T07:04:15.474Z,25.31
2018-08-19T07:05:15.507Z,25.29
2018-08-19T07:06:15.512Z,25.34
2018-08-19T07:07:15.592Z,25.31
2018-08-19T07:08:15.537Z,25.26
2018-08-19T07:09:15.569Z,25.30
2018-08-19T07:10:15.558Z,25.30
2018-08-19T07:11:15.589Z,25.25
2018-08-19T07:12:15.647Z,25.34
2018-08-19T07:13:15.604Z,25.26
2018-08-19T07:14:15.626Z,25.26
2018-08-19T07:15:15.643Z,25.29
2018-08-19T07:16:15.658Z,25.24
2018-08-19T07:17:15.705Z,25.26
2018-08-19T07:18:15.733Z,25.33
2018-08-19T07:19:15.720Z,25.40
2018-08-19T07:20:15.713Z,25.33
2018-08-19T07:21:15.723Z,25.33
2018-08-19T07:22:15.739Z,25.37
2018-08-19T07:23:15.797Z,25.25
2018-08-19T07:24:15.792Z,25.19
2018-08-19T07:25:15.802Z,25.24
2018-08-19T07:26:15.781Z,25.21
2018-08-19T07:27:15.826Z,25.24
2018-08-19T07:28:15.854Z,25.22
2018-08-19T07:29:15.878Z,25.36
2018-08-19T07:30:15.891Z,25.26
2018-08-19T07:31:15.878Z,25.24
2018-08-19T07:32:15.861Z,25.25
2018-08-19T07:33:15.901Z,25.19
2018-08-19T07:34:15.910Z,25.31
2018-08-19T07:35:15.968Z,25.30
2018-08-19T07:36:15.956Z,25.30
2018-08-19T07:37:16.005Z,25.33
2018-08-19T07:38:15.957Z,25.31
2018-08-19T07:39:15.960Z,25.25
2018-08-19T07:40:16.019Z,25.24
2018-08-19T07:41:16.038Z,25.26
2018-08-19T07:42:16.025Z,25.33
2018-08-19T07:43:16.042Z,25.29
2018-08-19T07:44:16.173Z,25.22
2018-08-19T07:45:16.073Z,25.26
2018-08-19T07:46:16.088Z,25.24
2018-08-19T07:47:16.088Z,25.29
2018-08-19T07:48:16.093Z,25.29
2018-08-19T07:49:16.259Z,25.29
2018-08-19T07:50:16.161Z,25.34
2018-08-19T07:51:16.294Z,25.31
2018-08-19T07:52:16.227Z,25.31
2018-08-19T07:53:16.178Z,25.30
2018-08-19T07:54:16.200Z,25.24
2018-08-19T07:55:16.257Z,25.26
2018-08-19T07:56:16.343Z,25.30
2018-08-19T07:57:16.252Z,25.33
2018-08-19T07:58:16.272Z,25.31
2018-08-19T07:59:16.243Z,25.25
2018-08-19T08:00:16.296Z,25.26
2018-08-19T08:01:16.310Z,25.25
2018-08-19T08:02:16.284Z,25.29
2018-08-19T08:03:16.321Z,25.34
2018-08-19T08:04:16.334Z,25.36
2018-08-19T08:05:16.354Z,25.31
2018-08-19T08:06:16.347Z,25.26
2018-08-19T08:07:16.385Z,25.25
2018-08-19T08:08:16.376Z,25.30
2018-08-19T08:09:16.388Z,25.26
2018-08-19T08:10:16.443Z,25.24
2018-08-19T08:11:16.414Z,25.29
2018-08-19T08:12:16.437Z,25.22
2018-08-19T08:13:16.427Z,25.34
2018-08-19T08:14:16.452Z,25.22
2018-08-19T08:15:16.570Z,25.25
2018-08-19T08:16:16.479Z,25.26
2018-08-19T08:17:16.503Z,25.31
2018-08-19T08:18:16.527Z,25.22
2018-08-19T08:19:16.531Z,25.19
2018-08-19T08:20:16.584Z,25.26
2018-08-19T08:21:16.626Z,25.34
2018-08-19T08:22:16.610Z,25.30
2018-08-19T08:23:16.565Z,25.25
2018-08-19T08:24:16.613Z,25.25
2018-08-19T08:25:16.639Z,25.25
2018-08-19T08:26:16.679Z,25.24
2018-08-19T08:27:16.634Z,25.25
2018-08-19T08:28:16.657Z,25.30
2018-08-19T08:29:16.701Z,25.30
2018-08-19T08:30:16.672Z,25.31
2018-08-19T08:31:16.752Z,25.31
2018-08-19T08:32:16.718Z,25.26
2018-08-19T08:33:16.721Z,25.33
2018-08-19T08:34:16.780Z,25.29
2018-08-19T08:35:16.795Z,25.30
2018-08-19T08:36:16.816Z,25.30
2018-08-19T08:37:16.755Z,25.26
2018-08-19T08:38:16.786Z,25.30
2018-08-19T08:39:16.808Z,25.34
2018-08-19T08:40:16.823Z,25.29
2018-08-19T08:41:16.871Z,25.34
2018-08-19T08:42:16.870Z,25.26
2018-08-19T08:43:16.866Z,25.31
2018-08-19T08:44:16.905Z,25.24
2018-08-19T08:45:16.896Z,25.30
2018-08-19T08:46:17.712Z,25.36
2018-08-19T08:47:16.936Z,25.41
2018-08-19T08:48:16.934Z,25.40
2018-08-19T08:49:16.942Z,25.30
2018-08-19T08:50:16.956Z,25.51
2018-08-19T08:51:16.951Z,25.37
2018-08-19T08:52:17.041Z,25.36
2018-08-19T08:53:17.036Z,25.41
2018-08-19T08:54:17.025Z,25.43
2018-08-19T08:55:17.078Z,25.54
2018-08-19T08:56:17.363Z,25.49
2018-08-19T08:57:17.207Z,25.55
2018-08-19T08:58:17.836Z,25.54
2018-08-19T08:59:17.071Z,25.54
2018-08-19T09:00:17.325Z,25.46
2018-08-19T09:01:17.428Z,25.49
2018-08-19T09:02:17.392Z,25.43
2018-08-19T09:03:17.256Z,25.48
2018-08-19T09:04:17.190Z,25.52
2018-08-19T09:05:17.223Z,25.61
2018-08-19T09:06:17.162Z,25.51
2018-08-19T09:07:17.184Z,25.55
2018-08-19T09:08:17.233Z,25.56
2018-08-19T09:09:17.247Z,25.58
2018-08-19T09:10:17.236Z,25.71
2018-08-19T09:11:17.264Z,25.70
2018-08-19T09:12:17.270Z,25.66
2018-08-19T09:13:17.290Z,25.63
2018-08-19T09:14:17.486Z,25.61
2018-08-19T09:15:17.329Z,25.74
2018-08-19T09:16:18.578Z,25.62
2018-08-19T09:17:17.349Z,25.62
2018-08-19T09:18:17.391Z,25.70
2018-08-19T09:19:17.536Z,25.68
2018-08-19T09:20:17.445Z,25.77
2018-08-19T09:21:17.376Z,25.71
2018-08-19T09:22:17.388Z,25.76
2018-08-19T09:23:17.497Z,25.74
2018-08-19T09:24:17.474Z,25.78
2018-08-19T09:25:17.481Z,25.81
2018-08-19T09:26:17.563Z,25.81
2018-08-19T09:27:17.466Z,25.85
2018-08-19T09:28:17.476Z,25.74
2018-08-19T09:29:17.481Z,25.85
2018-08-19T09:30:17.504Z,25.83
2018-08-19T09:31:17.631Z,25.85
2018-08-19T09:32:17.560Z,25.80
2018-08-19T09:33:17.595Z,25.78
2018-08-19T09:34:17.582Z,25.80
2018-08-19T09:35:17.663Z,25.81
2018-08-19T09:36:17.639Z,25.83
2018-08-19T09:37:17.636Z,25.83
2018-08-19T09:38:17.619Z,25.83
2018-08-19T09:39:17.628Z,25.83
2018-08-19T09:40:17.666Z,25.86
2018-08-19T09:41:17.783Z,25.83
2018-08-19T09:42:17.755Z,25.83
2018-08-19T09:43:17.687Z,25.83
2018-08-19T09:44:17.826Z,25.85
2018-08-19T09:45:18.905Z,25.80
2018-08-19T09:46:17.761Z,25.89
2018-08-19T09:47:17.754Z,25.91
2018-08-19T09:48:17.762Z,25.77
2018-08-19T09:49:18.272Z,25.89
2018-08-19T09:50:17.794Z,25.85
2018-08-19T09:51:17.809Z,25.81
2018-08-19T09:52:17.811Z,25.99
2018-08-19T09:53:17.825Z,25.93
2018-08-19T09:54:18.662Z,25.96
2018-08-19T09:55:17.987Z,25.95
2018-08-19T09:56:17.868Z,25.92
2018-08-19T09:57:17.941Z,25.93
2018-08-19T09:58:17.884Z,25.91
2018-08-19T09:59:17.906Z,25.98
2018-08-19T10:00:17.950Z,25.91
2018-08-19T10:01:17.952Z,26.01
2018-08-19T10:02:17.963Z,26.03
2018-08-19T10:03:18.698Z,25.99
2018-08-19T10:04:18.171Z,25.91
2018-08-19T10:05:18.230Z,25.98
2018-08-19T10:06:18.256Z,26.01
2018-08-19T10:07:18.132Z,25.99
2018-08-19T10:08:18.051Z,26.01
2018-08-19T10:09:18.062Z,26.01
2018-08-19T10:10:18.094Z,26.04
2018-08-19T10:11:18.080Z,26.06
2018-08-19T10:12:18.238Z,26.15
2018-08-19T10:13:18.110Z,26.01
2018-08-19T10:14:18.121Z,26.16
2018-08-19T10:15:18.153Z,26.26
2018-08-19T10:16:18.220Z,26.19
2018-08-19T10:17:18.178Z,26.24
2018-08-19T10:18:18.193Z,26.31
2018-08-19T10:19:18.328Z,26.33
2018-08-19T10:20:18.258Z,26.27
2018-08-19T10:21:18.233Z,26.27
2018-08-19T10:22:18.240Z,26.23
2018-08-19T10:23:18.259Z,26.33
2018-08-19T10:24:18.266Z,26.39
2018-08-19T10:25:18.307Z,26.34
2018-08-19T10:26:18.312Z,26.39
2018-08-19T10:27:18.447Z,26.41
2018-08-19T10:28:18.566Z,26.41
2018-08-19T10:29:18.349Z,26.26
2018-08-19T10:30:18.340Z,26.31
2018-08-19T10:31:18.425Z,26.46
2018-08-19T10:32:18.358Z,26.29
2018-08-19T10:33:18.389Z,26.39
2018-08-19T10:34:18.441Z,26.34
2018-08-19T10:35:18.477Z,26.36
2018-08-19T10:36:18.547Z,26.36
2018-08-19T10:37:18.477Z,26.33
2018-08-19T10:38:18.479Z,26.45
2018-08-19T10:39:18.566Z,26.42
2018-08-19T10:40:18.504Z,26.44
2018-08-19T10:41:18.524Z,26.37
2018-08-19T10:42:18.564Z,26.36
2018-08-19T10:43:18.694Z,26.34
2018-08-19T10:44:18.727Z,26.49
2018-08-19T10:45:19.099Z,26.46
2018-08-19T10:46:18.661Z,26.37
2018-08-19T10:47:18.723Z,26.48
2018-08-19T10:48:18.605Z,26.48
2018-08-19T10:49:19.169Z,26.55
2018-08-19T10:50:18.643Z,26.51
2018-08-19T10:51:18.657Z,26.55
2018-08-19T10:52:18.713Z,26.63
2018-08-19T10:53:18.734Z,26.59
2018-08-19T10:54:18.692Z,26.56
2018-08-19T10:55:18.889Z,26.60
2018-08-19T10:56:18.726Z,26.55
2018-08-19T10:57:18.738Z,26.59
2018-08-19T10:58:18.807Z,26.64
2018-08-19T10:59:18.759Z,26.55
2018-08-19T11:00:18.823Z,26.73
2018-08-19T11:01:18.807Z,26.66
2018-08-19T11:02:19.328Z,26.68
2018-08-19T11:03:18.835Z,26.67
2018-08-19T11:04:18.834Z,26.73
2018-08-19T11:05:18.852Z,26.66
2018-08-19T11:06:18.863Z,26.73
2018-08-19T11:07:18.945Z,26.81
2018-08-19T11:08:18.987Z,26.67
2018-08-19T11:09:18.940Z,26.82
2018-08-19T11:10:19.201Z,26.66
2018-08-19T11:11:18.940Z,26.61
2018-08-19T11:12:19.410Z,26.78
2018-08-19T11:13:19.007Z,26.79
2018-08-19T11:14:19.138Z,26.76
2018-08-19T11:15:19.059Z,26.85
2018-08-19T11:16:19.076Z,26.79
2018-08-19T11:17:19.068Z,26.82
2018-08-19T11:18:19.090Z,26.74
2018-08-19T11:19:19.081Z,26.85
2018-08-19T11:20:19.185Z,26.79
2018-08-19T11:21:19.091Z,26.78
2018-08-19T11:22:19.096Z,26.83
2018-08-19T11:23:19.104Z,26.78
2018-08-19T11:24:19.108Z,26.76
2018-08-19T11:25:19.184Z,26.86
2018-08-19T11:26:19.563Z,26.89
2018-08-19T11:27:19.166Z,26.89
2018-08-19T11:28:19.215Z,26.74
2018-08-19T11:29:19.196Z,26.92
2018-08-19T11:30:19.237Z,26.92
2018-08-19T11:31:19.219Z,26.85
2018-08-19T11:32:19.242Z,26.91
2018-08-19T11:33:19.354Z,26.86
2018-08-19T11:34:19.339Z,26.85
2018-08-19T11:35:19.271Z,26.89
2018-08-19T11:36:19.335Z,26.92
2018-08-19T11:37:19.320Z,26.85
2018-08-19T11:38:19.333Z,26.93
2018-08-19T11:39:19.337Z,27.00
2018-08-19T11:40:19.389Z,26.93
2018-08-19T11:41:19.372Z,26.89
2018-08-19T11:42:19.453Z,26.98
2018-08-19T11:43:19.503Z,26.96
2018-08-19T11:44:19.437Z,27.00
2018-08-19T11:45:19.475Z,26.98
2018-08-19T11:46:19.534Z,27.05
2018-08-19T11:47:19.445Z,27.05
2018-08-19T11:48:19.517Z,27.01
2018-08-19T11:49:19.500Z,27.03
2018-08-19T11:50:19.507Z,27.13
2018-08-19T11:51:19.593Z,27.05
2018-08-19T11:52:19.720Z,27.10
2018-08-19T11:53:19.574Z,27.01
2018-08-19T11:54:19.754Z,27.08
2018-08-19T11:55:19.621Z,27.08
2018-08-19T11:56:19.571Z,27.15
2018-08-19T11:57:19.649Z,27.19
2018-08-19T11:58:19.608Z,27.25
2018-08-19T11:59:19.639Z,27.20
2018-08-19T12:00:19.688Z,27.16
2018-08-19T12:01:19.702Z,27.20
2018-08-19T12:02:19.719Z,27.18
2018-08-19T12:03:19.878Z,27.18
2018-08-19T12:04:19.761Z,27.26
2018-08-19T12:05:19.714Z,27.25
2018-08-19T12:06:19.803Z,27.28
2018-08-19T12:07:19.754Z,27.30
2018-08-19T12:08:19.782Z,27.26
2018-08-19T12:09:20.325Z,27.22
2018-08-19T12:10:19.815Z,27.26
2018-08-19T12:11:19.895Z,27.20
2018-08-19T12:12:19.829Z,27.28
2018-08-19T12:13:19.839Z,27.25
2018-08-19T12:14:19.922Z,27.29
2018-08-19T12:15:19.898Z,27.28
2018-08-19T12:16:19.892Z,27.37
2018-08-19T12:17:19.919Z,27.25
2018-08-19T12:18:20.006Z,27.33
2018-08-19T12:19:19.953Z,27.34
2018-08-19T12:20:19.982Z,27.29
2018-08-19T12:21:20.001Z,27.34
2018-08-19T12:22:19.964Z,27.23
2018-08-19T12:23:19.970Z,27.38
2018-08-19T12:24:20.017Z,27.28
2018-08-19T12:25:20.043Z,27.35
2018-08-19T12:26:20.057Z,27.29
2018-08-19T12:27:20.101Z,27.25
2018-08-19T12:28:20.076Z,27.26
2018-08-19T12:29:20.101Z,27.34
2018-08-19T12:30:20.179Z,27.29
2018-08-19T12:31:20.107Z,27.26
2018-08-19T12:32:20.118Z,27.19
2018-08-19T12:33:20.147Z,27.23
2018-08-19T12:34:20.163Z,27.28
2018-08-19T12:35:20.207Z,27.35
2018-08-19T12:36:20.226Z,27.34
2018-08-19T12:37:20.390Z,27.26
2018-08-19T12:38:20.231Z,27.28
2018-08-19T12:39:20.238Z,27.33
2018-08-19T12:40:20.259Z,27.29
2018-08-19T12:41:20.278Z,27.29
2018-08-19T12:42:20.295Z,27.33
2018-08-19T12:43:20.279Z,27.30
2018-08-19T12:44:20.530Z,27.29
2018-08-19T12:45:20.319Z,27.29
2018-08-19T12:46:20.346Z,27.28
2018-08-19T12:47:20.372Z,27.25
2018-08-19T12:48:20.377Z,27.33
2018-08-19T12:49:20.403Z,27.29
2018-08-19T12:50:20.492Z,27.43
2018-08-19T12:51:20.443Z,27.26
2018-08-19T12:52:20.444Z,27.33